createdAt,value
2023-01-28T00:01:31.081Z,75.60
2023-01-28T00:03:58.602Z,75.00
2023-01-28T00:06:26.085Z,75.80
2023-01-28T00:08:55.037Z,75.50
2023-01-28T00:11:25.263Z,75.40
2023-01-28T00:13:53.389Z,75.50
2023-01-28T00:16:22.885Z,76.10
2023-01-28T00:18:50.445Z,75.50
2023-01-28T00:21:18.083Z,74.70
2023-01-28T00:23:48.808Z,74.30
2023-01-28T00:26:16.698Z,74.80
2023-01-28T00:28:44.651Z,75.20
2023-01-28T00:31:17.413Z,75.40
2023-01-28T00:33:46.634Z,74.90
2023-01-28T00:36:23.034Z,75.70
2023-01-28T00:38:54.337Z,75.30
2023-01-28T00:41:22.878Z,75.20
2023-01-28T00:43:51.073Z,74.80
2023-01-28T00:46:19.150Z,75.30
2023-01-28T00:48:46.815Z,75.80
2023-01-28T00:51:15.807Z,75.40
2023-01-28T00:53:44.009Z,75.60
2023-01-28T00:56:14.335Z,75.50
2023-01-28T00:58:43.276Z,75.20
2023-01-28T01:01:18.951Z,76.10
2023-01-28T01:03:46.628Z,75.20
2023-01-28T01:06:15.891Z,75.10
2023-01-28T01:08:50.376Z,74.80
2023-01-28T01:11:19.058Z,75.80
2023-01-28T01:13:56.284Z,74.80
2023-01-28T01:16:25.274Z,74.60
2023-01-28T01:18:53.666Z,74.60
2023-01-28T01:21:22.532Z,74.70
2023-01-28T01:23:51.145Z,74.60
2023-01-28T01:26:19.159Z,74.20
2023-01-28T01:28:47.529Z,74.00
2023-01-28T01:31:17.212Z,73.40
2023-01-28T01:33:45.980Z,73.50
2023-01-28T01:36:14.151Z,73.20
2023-01-28T01:38:42.352Z,72.90
2023-01-28T01:41:13.318Z,73.10
2023-01-28T01:44:00.627Z,72.90
2023-01-28T01:46:32.682Z,72.80
2023-01-28T01:49:04.216Z,72.00
2023-01-28T01:51:33.804Z,72.00
2023-01-28T01:54:01.643Z,71.90
2023-01-28T01:56:33.179Z,71.70
2023-01-28T01:59:01.291Z,71.60
2023-01-28T02:01:31.440Z,71.60
2023-01-28T02:04:14.344Z,71.60
2023-01-28T02:06:42.419Z,71.50
2023-01-28T02:09:56.567Z,70.80
2023-01-28T02:12:30.410Z,71.10
2023-01-28T02:15:03.575Z,70.80
2023-01-28T02:17:31.348Z,70.60
2023-01-28T02:20:05.297Z,70.10
2023-01-28T02:22:38.807Z,70.60
2023-01-28T02:25:15.323Z,70.50
2023-01-28T02:28:03.219Z,70.40
2023-01-28T02:30:34.484Z,69.90
2023-01-28T02:33:07.132Z,69.80
2023-01-28T02:35:52.885Z,68.80
2023-01-28T02:38:29.298Z,67.80
2023-01-28T02:41:07.880Z,66.90
2023-01-28T02:43:35.496Z,67.50
2023-01-28T02:46:27.807Z,68.20
2023-01-28T02:48:55.487Z,66.90
2023-01-28T02:51:29.755Z,68.40
2023-01-28T02:54:21.659Z,68.50
2023-01-28T02:57:01.518Z,68.40
2023-01-28T02:59:32.086Z,68.50
2023-01-28T03:02:12.860Z,68.60
2023-01-28T03:04:45.592Z,68.00
2023-01-28T03:07:15.763Z,68.40
2023-01-28T03:09:44.481Z,67.80
2023-01-28T03:12:37.611Z,66.60
2023-01-28T03:15:26.097Z,67.70
2023-01-28T03:18:17.327Z,67.70
2023-01-28T03:21:08.294Z,67.20
2023-01-28T03:24:00.448Z,67.00
2023-01-28T03:26:48.364Z,67.90
2023-01-28T03:29:34.456Z,67.60
2023-01-28T03:32:20.770Z,66.80
2023-01-28T03:35:07.318Z,65.50
2023-01-28T03:37:35.348Z,66.70
2023-01-28T03:40:05.081Z,66.60
2023-01-28T03:42:33.331Z,66.90
2023-01-28T03:45:04.285Z,65.30
2023-01-28T03:47:32.601Z,65.00
2023-01-28T03:50:01.375Z,65.80
2023-01-28T03:52:33.709Z,65.70
2023-01-28T03:55:01.588Z,64.50
2023-01-28T03:57:31.677Z,65.00
2023-01-28T03:59:59.318Z,65.60
2023-01-28T04:05:07.494Z,65.20
2023-01-28T04:07:35.144Z,62.80
2023-01-28T04:10:04.703Z,64.60
2023-01-28T04:12:32.811Z,63.90
2023-01-28T04:15:00.415Z,63.30
2023-01-28T04:17:28.250Z,64.10
2023-01-28T04:19:56.736Z,62.90
2023-01-28T04:22:24.352Z,63.40
2023-01-28T04:24:52.655Z,63.30
2023-01-28T04:27:20.909Z,64.60
2023-01-28T04:32:35.907Z,63.40
2023-01-28T04:35:03.982Z,63.20
2023-01-28T04:37:31.646Z,64.20
2023-01-28T04:39:59.484Z,62.00
2023-01-28T04:42:27.028Z,61.90
2023-01-28T04:44:54.599Z,60.10
2023-01-28T04:47:23.116Z,61.80
2023-01-28T04:49:51.765Z,63.10
2023-01-28T04:52:19.441Z,63.20
2023-01-28T04:54:47.681Z,61.00
2023-01-28T04:57:18.346Z,60.30
2023-01-28T04:59:46.935Z,62.30
2023-01-28T05:02:15.615Z,60.70
2023-01-28T05:05:11.351Z,60.40
2023-01-28T05:07:38.980Z,61.10
2023-01-28T05:10:07.161Z,60.60
2023-01-28T05:12:39.124Z,60.10
2023-01-28T05:15:20.279Z,60.90
2023-01-28T05:17:49.998Z,62.30
2023-01-28T05:20:18.593Z,62.80
2023-01-28T05:23:06.391Z,60.00
2023-01-28T05:25:36.470Z,60.00
2023-01-28T05:28:07.358Z,61.40
2023-01-28T05:30:43.239Z,61.60
2023-01-28T05:33:13.122Z,61.90
2023-01-28T05:35:43.689Z,59.50
2023-01-28T05:38:30.285Z,58.10
2023-01-28T05:41:02.549Z,58.30
2023-01-28T05:43:30.509Z,57.80
2023-01-28T05:45:58.506Z,58.20
2023-01-28T05:48:27.712Z,58.90
2023-01-28T05:50:58.099Z,59.50
2023-01-28T05:53:30.235Z,58.50
2023-01-28T05:55:58.285Z,57.70
2023-01-28T05:58:29.340Z,59.70
2023-01-28T06:00:57.012Z,58.70
2023-01-28T06:03:25.160Z,59.20
2023-01-28T06:05:53.689Z,60.30
2023-01-28T06:08:22.525Z,60.30
2023-01-28T06:10:51.800Z,59.40
2023-01-28T06:13:22.488Z,56.30
2023-01-28T06:15:51.938Z,58.80
2023-01-28T06:18:19.713Z,58.90
2023-01-28T06:20:51.312Z,57.70
2023-01-28T06:23:20.110Z,58.30
2023-01-28T06:25:55.160Z,57.40
2023-01-28T06:28:24.959Z,57.70
2023-01-28T06:30:53.428Z,58.30
2023-01-28T06:33:22.233Z,59.50
2023-01-28T06:35:49.981Z,58.70
2023-01-28T06:38:20.787Z,58.40
2023-01-28T06:40:52.506Z,58.10
2023-01-28T06:43:20.846Z,56.90
2023-01-28T06:45:48.793Z,57.30
2023-01-28T06:48:16.592Z,56.50
2023-01-28T06:50:44.340Z,58.70
2023-01-28T06:53:13.511Z,56.00
2023-01-28T06:55:41.240Z,56.40
2023-01-28T06:58:09.013Z,55.50
2023-01-28T07:00:36.733Z,56.60
2023-01-28T07:03:05.726Z,55.10
2023-01-28T07:05:34.102Z,57.80
2023-01-28T07:08:03.425Z,58.00
2023-01-28T07:10:31.853Z,55.50
2023-01-28T07:13:00.435Z,56.60
2023-01-28T07:15:28.265Z,57.00
2023-01-28T07:17:55.752Z,57.00
2023-01-28T07:20:23.747Z,55.50
2023-01-28T07:22:51.374Z,54.60
2023-01-28T07:25:19.025Z,54.70
2023-01-28T07:27:48.171Z,55.70
2023-01-28T07:30:16.468Z,55.60
2023-01-28T07:32:44.975Z,55.00
2023-01-28T07:35:12.783Z,55.60
2023-01-28T07:37:40.478Z,56.30
2023-01-28T07:40:08.950Z,55.60
2023-01-28T07:42:36.757Z,56.70
2023-01-28T07:45:19.512Z,57.60
2023-01-28T07:47:58.048Z,57.40
2023-01-28T07:50:27.160Z,56.10
2023-01-28T07:52:54.715Z,56.10
2023-01-28T07:55:22.890Z,57.80
2023-01-28T07:57:58.168Z,55.50
2023-01-28T08:00:26.731Z,56.60
2023-01-28T08:03:02.430Z,54.90
2023-01-28T08:05:40.056Z,56.20
2023-01-28T08:08:08.838Z,55.30
2023-01-28T08:10:38.339Z,56.70
2023-01-28T08:13:06.482Z,57.00
2023-01-28T08:15:37.044Z,54.90
2023-01-28T08:18:05.519Z,56.70
2023-01-28T08:20:36.402Z,55.90
2023-01-28T08:23:13.129Z,55.20
2023-01-28T08:25:47.657Z,54.20
2023-01-28T08:28:17.697Z,54.90
2023-01-28T08:30:46.160Z,57.00
2023-01-28T08:33:16.389Z,55.00
2023-01-28T08:35:44.116Z,54.70
2023-01-28T08:38:12.987Z,54.00
2023-01-28T08:40:40.887Z,56.20
2023-01-28T08:43:08.755Z,54.60
2023-01-28T08:45:36.624Z,53.90
2023-01-28T08:48:11.549Z,55.70
2023-01-28T08:50:40.959Z,54.70
2023-01-28T08:53:15.738Z,53.00
2023-01-28T08:55:43.267Z,54.50
2023-01-28T08:58:11.999Z,53.40
2023-01-28T09:00:40.122Z,54.40
2023-01-28T09:03:07.958Z,56.00
2023-01-28T09:05:36.102Z,55.50
2023-01-28T09:08:04.693Z,56.30
2023-01-28T09:10:33.127Z,55.30
2023-01-28T09:13:04.892Z,55.20
2023-01-28T09:15:33.003Z,55.50
2023-01-28T09:18:01.672Z,54.30
2023-01-28T09:20:29.852Z,54.40
2023-01-28T09:22:58.954Z,52.80
2023-01-28T09:25:26.582Z,53.60
2023-01-28T09:27:54.516Z,54.30
2023-01-28T09:30:22.553Z,54.40
2023-01-28T09:32:51.665Z,53.20
2023-01-28T09:35:19.953Z,52.70
2023-01-28T09:37:47.605Z,54.70
2023-01-28T09:40:26.572Z,53.90
2023-01-28T09:43:07.585Z,55.20
2023-01-28T09:45:42.508Z,54.30
2023-01-28T09:48:15.832Z,54.00
2023-01-28T09:50:46.495Z,53.80
2023-01-28T09:53:17.072Z,53.80
2023-01-28T09:55:47.407Z,53.80
2023-01-28T09:58:17.915Z,53.90
2023-01-28T10:01:05.064Z,54.30
2023-01-28T10:03:45.619Z,53.80
2023-01-28T10:06:16.268Z,54.90
2023-01-28T10:08:56.185Z,55.00
2023-01-28T10:11:43.164Z,55.70
2023-01-28T10:14:30.115Z,56.00
2023-01-28T10:16:58.436Z,55.20
2023-01-28T10:19:32.221Z,55.50
2023-01-28T10:22:02.719Z,54.70
2023-01-28T10:24:32.697Z,55.70
2023-01-28T10:27:00.938Z,56.40
2023-01-28T10:29:34.197Z,56.40
2023-01-28T10:32:02.573Z,56.40
2023-01-28T10:34:45.985Z,56.60
2023-01-28T10:37:15.837Z,56.60
2023-01-28T10:39:43.736Z,55.20
2023-01-28T10:42:32.889Z,55.90
2023-01-28T10:45:08.124Z,55.60
2023-01-28T10:47:47.805Z,56.20
2023-01-28T10:50:21.042Z,55.50
2023-01-28T10:52:55.697Z,56.20
2023-01-28T10:55:23.797Z,56.30
2023-01-28T10:57:51.635Z,56.10
2023-01-28T11:00:19.649Z,56.40
2023-01-28T11:02:49.941Z,56.90
2023-01-28T11:05:23.294Z,57.50
2023-01-28T11:07:50.790Z,56.80
2023-01-28T11:10:35.682Z,57.00
2023-01-28T11:13:05.762Z,57.40
2023-01-28T11:15:34.005Z,57.90
2023-01-28T11:18:10.709Z,57.60
2023-01-28T11:20:41.618Z,57.60
2023-01-28T11:23:18.623Z,57.80
2023-01-28T11:25:46.106Z,58.30
2023-01-28T11:28:19.464Z,58.00
2023-01-28T11:30:51.700Z,58.10
2023-01-28T11:33:23.291Z,58.30
2023-01-28T11:35:55.014Z,58.40
2023-01-28T11:38:23.916Z,58.20
2023-01-28T11:40:53.499Z,58.50
2023-01-28T11:43:27.746Z,59.00
2023-01-28T11:45:56.084Z,59.10
2023-01-28T11:48:29.867Z,59.10
2023-01-28T11:51:00.662Z,59.10
2023-01-28T11:53:47.548Z,59.30
2023-01-28T11:56:39.812Z,59.30
2023-01-28T11:59:27.086Z,59.30
2023-01-28T12:02:00.632Z,59.30
2023-01-28T12:04:44.173Z,59.00
2023-01-28T12:07:30.922Z,59.10
2023-01-28T12:10:17.448Z,59.30
2023-01-28T12:12:53.802Z,59.30
2023-01-28T12:15:27.267Z,59.00
2023-01-28T12:18:10.106Z,59.20
2023-01-28T12:20:56.222Z,59.30
2023-01-28T12:23:30.726Z,59.40
2023-01-28T12:25:59.032Z,59.50
2023-01-28T12:28:39.202Z,59.50
2023-01-28T12:31:13.759Z,59.60
2023-01-28T12:33:57.201Z,59.70
2023-01-28T12:36:36.939Z,59.70
2023-01-28T12:39:04.546Z,59.70
2023-01-28T12:41:35.578Z,59.90
2023-01-28T12:44:07.030Z,60.10
2023-01-28T12:46:46.854Z,60.20
2023-01-28T12:49:26.593Z,60.30
2023-01-28T12:52:12.501Z,60.50
2023-01-28T12:54:54.177Z,60.60
2023-01-28T12:57:27.027Z,60.90
2023-01-28T12:59:57.378Z,60.80
2023-01-28T13:02:32.644Z,60.80
2023-01-28T13:05:03.168Z,60.80
2023-01-28T13:07:36.846Z,60.80
2023-01-28T13:10:22.737Z,60.90
2023-01-28T13:12:50.676Z,60.90
2023-01-28T13:15:19.417Z,61.00
2023-01-28T13:17:57.453Z,61.10
2023-01-28T13:20:48.581Z,61.20
2023-01-28T13:23:25.502Z,61.20
2023-01-28T13:25:54.326Z,61.30
2023-01-28T13:28:33.094Z,61.30
2023-01-28T13:31:03.645Z,61.40
2023-01-28T13:33:38.404Z,61.40
2023-01-28T13:36:24.282Z,61.60
2023-01-28T13:39:10.427Z,61.70
2023-01-28T13:41:48.881Z,61.70
2023-01-28T13:44:28.179Z,61.70
2023-01-28T13:46:57.560Z,61.80
2023-01-28T13:49:29.295Z,61.70
2023-01-28T13:52:11.647Z,61.70
2023-01-28T13:54:41.469Z,61.80
2023-01-28T13:57:32.125Z,62.00
2023-01-28T13:59:59.765Z,62.10
2023-01-28T14:02:27.373Z,62.20
2023-01-28T14:05:13.772Z,62.20
2023-01-28T14:07:52.922Z,62.30
2023-01-28T14:10:35.838Z,62.30
2023-01-28T14:13:03.382Z,62.50
2023-01-28T14:15:50.094Z,62.50
2023-01-28T14:18:37.813Z,62.60
2023-01-28T14:21:11.721Z,62.80
2023-01-28T14:23:44.491Z,62.80
2023-01-28T14:26:32.954Z,62.90
2023-01-28T14:29:03.653Z,63.00
2023-01-28T14:31:35.319Z,63.20
2023-01-28T14:34:21.382Z,63.20
2023-01-28T14:36:50.674Z,63.20
2023-01-28T14:39:23.464Z,63.30
2023-01-28T14:41:51.545Z,63.40
2023-01-28T14:44:32.858Z,63.50
2023-01-28T14:47:03.106Z,63.50
2023-01-28T14:49:36.513Z,63.40
2023-01-28T14:52:20.815Z,63.50
2023-01-28T14:54:51.449Z,63.60
2023-01-28T14:57:19.007Z,63.60
2023-01-28T14:59:54.689Z,63.60
2023-01-28T15:02:24.591Z,63.60
2023-01-28T15:04:53.013Z,63.60
2023-01-28T15:07:22.645Z,63.50
2023-01-28T15:10:16.146Z,63.40
2023-01-28T15:12:48.131Z,63.30
2023-01-28T15:15:20.560Z,63.30
2023-01-28T15:17:48.908Z,63.40
2023-01-28T15:20:20.737Z,63.50
2023-01-28T15:22:48.442Z,63.40
2023-01-28T15:25:17.763Z,63.20
2023-01-28T15:27:45.469Z,63.20
2023-01-28T15:30:23.384Z,63.30
2023-01-28T15:33:14.004Z,63.50
2023-01-28T15:35:55.193Z,63.40
2023-01-28T15:38:23.619Z,63.60
2023-01-28T15:41:01.169Z,63.60
2023-01-28T15:43:38.798Z,63.60
2023-01-28T15:46:12.662Z,63.70
2023-01-28T15:48:43.029Z,63.90
2023-01-28T15:51:18.938Z,63.70
2023-01-28T15:53:48.551Z,63.70
2023-01-28T15:56:16.632Z,63.70
2023-01-28T15:58:44.387Z,63.60
2023-01-28T16:01:15.904Z,63.80
2023-01-28T16:03:44.604Z,63.90
2023-01-28T16:06:12.147Z,64.10
2023-01-28T16:08:53.326Z,64.10
2023-01-28T16:11:45.032Z,64.00
2023-01-28T16:14:38.504Z,64.10
2023-01-28T16:17:06.092Z,64.10
2023-01-28T16:19:41.971Z,64.10
2023-01-28T16:22:19.079Z,64.20
2023-01-28T16:24:53.030Z,64.20
2023-01-28T16:27:24.828Z,64.20
2023-01-28T16:29:52.423Z,64.20
2023-01-28T16:32:32.163Z,64.20
2023-01-28T16:34:59.909Z,64.20
2023-01-28T16:37:28.476Z,64.40
2023-01-28T16:39:58.122Z,64.50
2023-01-28T16:42:27.865Z,64.50
2023-01-28T16:44:55.376Z,64.60
2023-01-28T16:47:22.974Z,64.50
2023-01-28T16:49:50.716Z,64.50
2023-01-28T16:52:18.768Z,64.60
2023-01-28T16:54:46.560Z,64.60
2023-01-28T16:57:21.530Z,64.80
2023-01-28T16:59:49.100Z,64.90
2023-01-28T17:02:18.131Z,65.00
2023-01-28T17:04:45.721Z,65.00
2023-01-28T17:07:13.311Z,65.20
2023-01-28T17:09:40.860Z,65.30
2023-01-28T17:12:09.232Z,65.80
2023-01-28T17:14:36.793Z,66.00
2023-01-28T17:17:04.477Z,65.80
2023-01-28T17:19:32.849Z,65.60
2023-01-28T17:22:00.370Z,66.10
2023-01-28T17:24:29.767Z,65.90
2023-01-28T17:26:57.381Z,65.90
2023-01-28T17:29:24.971Z,66.00
2023-01-28T17:31:52.580Z,66.50
2023-01-28T17:34:20.208Z,66.30
2023-01-28T17:36:47.763Z,66.50
2023-01-28T17:39:15.302Z,67.10
2023-01-28T17:41:42.863Z,66.40
2023-01-28T17:44:12.426Z,66.80
2023-01-28T17:46:39.949Z,66.70
2023-01-28T17:49:07.644Z,66.70
2023-01-28T17:51:35.209Z,66.80
2023-01-28T17:54:03.023Z,67.00
2023-01-28T17:56:30.916Z,66.50
2023-01-28T17:58:59.513Z,66.80
2023-01-28T18:01:27.192Z,67.10
2023-01-28T18:03:55.863Z,67.10
2023-01-28T18:06:24.347Z,66.90
2023-01-28T18:08:51.964Z,67.10
2023-01-28T18:11:20.440Z,67.60
2023-01-28T18:13:47.970Z,67.10
2023-01-28T18:16:18.211Z,67.00
2023-01-28T18:18:46.061Z,66.90
2023-01-28T18:21:51.365Z,66.70
2023-01-28T18:24:19.951Z,66.90
2023-01-28T18:26:47.933Z,67.00
2023-01-28T18:29:20.628Z,66.90
2023-01-28T18:31:49.903Z,66.90
2023-01-28T18:34:18.373Z,66.80
2023-01-28T18:36:46.077Z,67.00
2023-01-28T18:39:14.259Z,67.00
2023-01-28T18:41:41.879Z,67.10
2023-01-28T18:44:10.134Z,67.00
2023-01-28T18:46:37.959Z,67.20
2023-01-28T18:49:05.504Z,67.30
2023-01-28T18:51:33.013Z,67.10
2023-01-28T18:54:01.652Z,67.20
2023-01-28T18:56:29.875Z,67.10
2023-01-28T18:58:58.458Z,67.20
2023-01-28T19:01:26.236Z,67.40
2023-01-28T19:03:54.333Z,67.50
2023-01-28T19:06:21.866Z,67.50
2023-01-28T19:08:56.852Z,68.20
2023-01-28T19:11:25.203Z,67.80
2023-01-28T19:13:52.840Z,68.40
2023-01-28T19:16:20.985Z,68.20
2023-01-28T19:18:55.367Z,68.80
2023-01-28T19:21:23.554Z,68.70
2023-01-28T19:23:55.605Z,68.70
2023-01-28T19:26:23.851Z,69.40
2023-01-28T19:28:51.384Z,69.10
2023-01-28T19:31:20.974Z,70.00
2023-01-28T19:33:49.011Z,69.60
2023-01-28T19:36:16.566Z,68.90
2023-01-28T19:38:44.819Z,70.10
2023-01-28T19:41:17.270Z,69.30
2023-01-28T19:43:44.853Z,69.60
2023-01-28T19:46:14.250Z,68.90
2023-01-28T19:48:41.853Z,68.70
2023-01-28T19:51:10.129Z,68.80
2023-01-28T19:53:38.212Z,69.20
2023-01-28T19:56:08.045Z,69.00
2023-01-28T19:58:36.839Z,69.20
2023-01-28T20:01:11.050Z,69.00
2023-01-28T20:03:38.889Z,68.90
2023-01-28T20:06:07.763Z,69.20
2023-01-28T20:08:35.369Z,69.20
2023-01-28T20:11:10.911Z,69.10
2023-01-28T20:13:39.270Z,68.90
2023-01-28T20:16:08.284Z,69.20
2023-01-28T20:18:36.192Z,68.90
2023-01-28T20:21:05.550Z,69.10
2023-01-28T20:23:33.202Z,68.80
2023-01-28T20:26:04.096Z,68.80
2023-01-28T20:28:31.648Z,68.70
2023-01-28T20:31:04.196Z,69.00
2023-01-28T20:33:32.740Z,69.80
2023-01-28T20:36:07.364Z,68.80
2023-01-28T20:38:35.624Z,68.60
2023-01-28T20:41:07.410Z,68.80
2023-01-28T20:43:35.862Z,68.90
2023-01-28T20:46:06.908Z,68.80
2023-01-28T20:48:34.474Z,68.90
2023-01-28T20:51:10.867Z,68.80
2023-01-28T20:53:38.675Z,68.80
2023-01-28T20:56:06.345Z,68.90
2023-01-28T20:58:33.980Z,68.90
2023-01-28T21:01:01.670Z,68.90
2023-01-28T21:03:29.252Z,69.00
2023-01-28T21:05:57.106Z,68.80
2023-01-28T21:08:24.667Z,68.70
2023-01-28T21:10:52.179Z,68.50
2023-01-28T21:13:19.788Z,68.50
2023-01-28T21:15:57.132Z,68.50
2023-01-28T21:18:25.114Z,68.60
2023-01-28T21:20:55.804Z,68.60
2023-01-28T21:23:23.802Z,68.40
2023-01-28T21:25:52.721Z,68.60
2023-01-28T21:28:20.699Z,68.70
2023-01-28T21:30:48.472Z,69.20
2023-01-28T21:33:16.475Z,68.50
2023-01-28T21:35:44.397Z,68.60
2023-01-28T21:38:12.109Z,68.50
2023-01-28T21:40:39.731Z,68.50
2023-01-28T21:43:07.272Z,68.40
2023-01-28T21:45:34.828Z,68.50
2023-01-28T21:48:02.388Z,68.50
2023-01-28T21:50:29.958Z,68.50
2023-01-28T21:52:58.344Z,68.60
2023-01-28T21:55:25.854Z,68.60
2023-01-28T21:58:13.222Z,68.60
2023-01-28T22:00:40.719Z,68.60
2023-01-28T22:03:08.551Z,68.60
2023-01-28T22:05:36.132Z,68.70
2023-01-28T22:08:03.672Z,68.70
2023-01-28T22:10:31.472Z,68.70
2023-01-28T22:12:58.973Z,68.70
2023-01-28T22:15:26.463Z,68.70
2023-01-28T22:17:53.996Z,68.80
2023-01-28T22:20:21.519Z,68.80
2023-01-28T22:22:49.043Z,69.00
2023-01-28T22:25:16.754Z,68.90
2023-01-28T22:27:44.326Z,69.00
2023-01-28T22:30:12.179Z,69.10
2023-01-28T22:32:39.730Z,69.00
2023-01-28T22:35:07.356Z,69.10
2023-01-28T22:37:34.922Z,69.10
2023-01-28T22:40:02.438Z,69.30
2023-01-28T22:42:30.006Z,69.00
2023-01-28T22:44:57.523Z,69.40
2023-01-28T22:47:25.075Z,69.50
2023-01-28T22:49:52.843Z,69.40
2023-01-28T22:52:20.342Z,69.40
2023-01-28T22:54:48.083Z,69.30
2023-01-28T22:57:16.361Z,69.40
2023-01-28T22:59:54.600Z,69.20
2023-01-28T23:02:27.001Z,69.60
2023-01-28T23:04:54.521Z,69.20
2023-01-28T23:07:22.158Z,69.20
2023-01-28T23:09:49.925Z,69.50
2023-01-28T23:12:17.461Z,69.40
2023-01-28T23:15:03.457Z,69.90
2023-01-28T23:17:49.642Z,69.40
2023-01-28T23:20:35.687Z,69.10
2023-01-28T23:23:21.559Z,70.30
2023-01-28T23:25:49.431Z,70.40
2023-01-28T23:28:17.009Z,70.60
2023-01-28T23:30:44.608Z,69.90
2023-01-28T23:33:12.143Z,70.30
2023-01-28T23:35:39.678Z,69.90
2023-01-28T23:38:07.152Z,69.90
2023-01-28T23:40:34.638Z,69.50
2023-01-28T23:43:02.176Z,70.00
2023-01-28T23:45:29.730Z,69.90
2023-01-28T23:47:58.090Z,69.70
2023-01-28T23:50:25.596Z,70.30
2023-01-28T23:52:53.109Z,70.00
2023-01-28T23:55:20.662Z,70.00
2023-01-28T23:57:48.180Z,69.60
